createdAt,value
2022-10-06T00:01:18.136Z,9.97
2022-10-06T00:03:47.670Z,8.90
2022-10-06T00:06:18.833Z,9.73
2022-10-06T00:08:48.176Z,9.77
2022-10-06T00:11:17.654Z,12.20
2022-10-06T00:13:47.774Z,11.20
2022-10-06T00:16:21.776Z,8.00
2022-10-06T00:18:50.362Z,10.37
2022-10-06T00:21:19.647Z,7.87
2022-10-06T00:23:48.084Z,11.53
2022-10-06T00:26:17.491Z,5.53
2022-10-06T00:28:48.644Z,9.17
2022-10-06T00:31:19.952Z,7.63
2022-10-06T00:33:48.753Z,10.90
2022-10-06T00:36:17.363Z,9.33
2022-10-06T00:38:45.800Z,7.07
2022-10-06T00:41:16.439Z,7.07
2022-10-06T00:43:50.048Z,5.27
2022-10-06T00:46:24.666Z,7.97
2022-10-06T00:48:57.367Z,5.50
2022-10-06T00:51:25.778Z,8.60
2022-10-06T00:53:54.490Z,6.93
2022-10-06T00:56:22.995Z,6.60
2022-10-06T00:58:52.998Z,5.00
2022-10-06T01:01:21.719Z,5.87
2022-10-06T01:03:54.876Z,3.90
2022-10-06T01:06:23.342Z,6.37
2022-10-06T01:08:52.484Z,8.70
2022-10-06T01:11:21.260Z,4.10
2022-10-06T01:13:49.771Z,3.73
2022-10-06T01:16:23.420Z,3.43
2022-10-06T01:18:54.807Z,11.97
2022-10-06T01:21:31.737Z,2.57
2022-10-06T01:24:03.633Z,5.43
2022-10-06T01:26:33.741Z,4.33
2022-10-06T01:29:02.505Z,2.83
2022-10-06T01:31:31.326Z,2.93
2022-10-06T01:33:59.861Z,4.00
2022-10-06T01:36:28.238Z,3.87
2022-10-06T01:38:56.722Z,3.47
2022-10-06T01:41:27.949Z,5.27
2022-10-06T01:43:56.784Z,3.00
2022-10-06T01:46:25.332Z,2.60
2022-10-06T01:48:53.775Z,8.90
2022-10-06T01:51:22.246Z,3.53
2022-10-06T01:53:50.641Z,4.50
2022-10-06T01:56:21.299Z,4.57
2022-10-06T01:58:51.146Z,3.83
2022-10-06T02:01:19.693Z,2.67
2022-10-06T02:03:48.133Z,5.33
2022-10-06T02:06:16.600Z,2.87
2022-10-06T02:08:45.094Z,2.70
2022-10-06T02:11:14.337Z,4.63
2022-10-06T02:13:43.357Z,4.17
2022-10-06T02:16:14.267Z,5.73
2022-10-06T02:18:42.809Z,2.57
2022-10-06T02:21:16.926Z,2.80
2022-10-06T02:23:45.921Z,5.67
2022-10-06T02:26:16.286Z,5.10
2022-10-06T02:28:45.465Z,2.60
2022-10-06T02:31:16.458Z,2.87
2022-10-06T02:33:45.164Z,2.27
2022-10-06T02:36:14.731Z,3.67
2022-10-06T02:38:43.311Z,6.03
2022-10-06T02:41:12.582Z,2.60
2022-10-06T02:43:41.110Z,2.97
2022-10-06T02:46:12.824Z,3.03
2022-10-06T02:48:43.105Z,2.60
2022-10-06T02:51:13.980Z,4.67
2022-10-06T02:53:44.062Z,5.00
2022-10-06T02:56:16.307Z,4.73
2022-10-06T02:58:45.828Z,4.30
2022-10-06T03:01:19.563Z,4.10
2022-10-06T03:03:49.967Z,2.93
2022-10-06T03:06:23.294Z,3.07
2022-10-06T03:08:52.823Z,4.00
2022-10-06T03:11:23.136Z,5.20
2022-10-06T03:13:52.400Z,2.80
2022-10-06T03:16:22.831Z,2.43
2022-10-06T03:18:54.420Z,3.90
2022-10-06T03:21:24.416Z,3.37
2022-10-06T03:23:54.679Z,2.93
2022-10-06T03:26:27.892Z,4.40
2022-10-06T03:28:56.549Z,3.07
2022-10-06T03:31:25.718Z,3.87
2022-10-06T03:33:57.052Z,3.50
2022-10-06T03:36:26.987Z,5.40
2022-10-06T03:38:55.531Z,2.83
2022-10-06T03:41:26.185Z,2.40
2022-10-06T03:43:55.885Z,2.30
2022-10-06T03:46:26.261Z,3.80
2022-10-06T03:48:57.449Z,4.20
2022-10-06T03:51:28.333Z,3.40
2022-10-06T03:53:57.571Z,3.33
2022-10-06T03:56:28.558Z,3.73
2022-10-06T03:58:59.813Z,2.83
2022-10-06T04:01:30.471Z,7.23
2022-10-06T04:04:01.588Z,2.80
2022-10-06T04:06:31.957Z,5.40
2022-10-06T04:09:01.077Z,3.00
2022-10-06T04:11:31.604Z,5.00
2022-10-06T04:14:01.545Z,3.80
2022-10-06T04:16:32.493Z,4.23
2022-10-06T04:19:03.889Z,3.03
2022-10-06T04:21:34.335Z,5.70
2022-10-06T04:24:02.772Z,6.10
2022-10-06T04:26:33.032Z,5.60
2022-10-06T04:29:02.268Z,4.20
2022-10-06T04:31:33.098Z,4.27
2022-10-06T04:34:03.682Z,4.33
2022-10-06T04:36:34.106Z,4.17
2022-10-06T04:39:04.567Z,3.47
2022-10-06T04:41:35.120Z,4.13
2022-10-06T04:44:04.212Z,4.40
2022-10-06T04:46:43.843Z,4.23
2022-10-06T04:49:20.092Z,5.80
2022-10-06T04:51:50.266Z,4.90
2022-10-06T04:54:19.377Z,4.20
2022-10-06T04:56:47.892Z,8.43
2022-10-06T04:59:16.406Z,4.10
2022-10-06T05:01:44.873Z,5.13
2022-10-06T05:04:14.672Z,3.60
2022-10-06T05:06:43.915Z,2.70
2022-10-06T05:09:14.922Z,4.07
2022-10-06T05:11:43.503Z,2.77
2022-10-06T05:14:11.886Z,4.10
2022-10-06T05:16:40.531Z,5.73
2022-10-06T05:19:09.263Z,4.00
2022-10-06T05:21:39.103Z,5.10
2022-10-06T05:24:08.141Z,2.50
2022-10-06T05:26:37.385Z,3.73
2022-10-06T05:29:06.217Z,2.73
2022-10-06T05:31:39.147Z,2.90
2022-10-06T05:34:07.912Z,5.90
2022-10-06T05:36:36.450Z,3.93
2022-10-06T05:39:06.460Z,6.23
2022-10-06T05:41:37.927Z,7.13
2022-10-06T05:44:06.925Z,12.93
2022-10-06T05:46:36.035Z,11.93
2022-10-06T05:49:07.341Z,6.37
2022-10-06T05:51:36.974Z,5.03
2022-10-06T05:54:06.967Z,5.03
2022-10-06T05:56:37.199Z,3.53
2022-10-06T05:59:06.943Z,3.83
2022-10-06T06:01:36.822Z,10.17
2022-10-06T06:04:06.802Z,8.77
2022-10-06T06:06:37.025Z,6.30
2022-10-06T06:09:08.897Z,3.50
2022-10-06T06:11:41.137Z,4.27
2022-10-06T06:14:11.234Z,4.80
2022-10-06T06:16:40.359Z,4.20
2022-10-06T06:19:11.194Z,5.23
2022-10-06T06:21:40.294Z,4.90
2022-10-06T06:24:13.058Z,5.33
2022-10-06T06:26:42.037Z,4.60
2022-10-06T06:29:10.475Z,3.20
2022-10-06T06:31:40.440Z,3.90
2022-10-06T06:34:09.236Z,5.53
2022-10-06T06:36:41.212Z,6.70
2022-10-06T06:39:13.039Z,3.70
2022-10-06T06:41:42.803Z,4.60
2022-10-06T06:44:13.153Z,5.97
2022-10-06T06:46:43.561Z,6.77
2022-10-06T06:49:12.404Z,10.47
2022-10-06T06:51:43.743Z,4.17
2022-10-06T06:54:14.642Z,4.33
2022-10-06T06:56:43.091Z,6.97
2022-10-06T06:59:13.035Z,4.83
2022-10-06T07:01:46.065Z,8.37
2022-10-06T07:04:16.029Z,4.47
2022-10-06T07:06:57.299Z,5.50
2022-10-06T07:09:27.762Z,3.87
2022-10-06T07:11:56.464Z,4.37
2022-10-06T07:14:25.546Z,5.40
2022-10-06T07:17:11.743Z,3.70
2022-10-06T07:19:57.443Z,4.40
2022-10-06T07:22:46.900Z,9.07
2022-10-06T07:25:25.747Z,4.33
2022-10-06T07:27:55.622Z,5.97
2022-10-06T07:30:26.788Z,4.53
2022-10-06T07:32:56.139Z,7.60
2022-10-06T07:35:25.885Z,4.03
2022-10-06T07:37:54.843Z,4.00
2022-10-06T07:40:25.447Z,5.73
2022-10-06T07:42:53.847Z,3.13
2022-10-06T07:45:41.651Z,4.97
2022-10-06T07:48:14.703Z,3.63
2022-10-06T07:50:44.075Z,3.73
2022-10-06T07:53:12.824Z,5.77
2022-10-06T07:55:44.814Z,6.80
2022-10-06T07:58:14.210Z,2.60
2022-10-06T08:00:43.623Z,4.73
2022-10-06T08:03:14.742Z,3.77
2022-10-06T08:05:43.155Z,4.30
2022-10-06T08:08:11.600Z,5.60
2022-10-06T08:10:40.326Z,3.37
2022-10-06T08:13:10.642Z,5.77
2022-10-06T08:15:39.162Z,4.83
2022-10-06T08:18:21.387Z,4.73
2022-10-06T08:20:55.933Z,2.37
2022-10-06T08:23:24.497Z,4.27
2022-10-06T08:25:54.558Z,5.00
2022-10-06T08:28:24.699Z,2.30
2022-10-06T08:30:54.389Z,4.07
2022-10-06T08:33:22.837Z,3.17
2022-10-06T08:35:51.883Z,3.63
2022-10-06T08:38:20.536Z,4.67
2022-10-06T08:40:49.067Z,3.40
2022-10-06T08:43:25.164Z,2.43
2022-10-06T08:46:01.123Z,2.93
2022-10-06T08:48:38.977Z,5.87
2022-10-06T08:51:24.429Z,8.60
2022-10-06T08:54:05.357Z,3.83
2022-10-06T08:56:38.028Z,1.97
2022-10-06T08:59:06.631Z,5.93
2022-10-06T09:01:43.428Z,3.30
2022-10-06T09:04:15.034Z,4.30
2022-10-06T09:06:51.909Z,4.67
2022-10-06T09:09:29.295Z,1.97
2022-10-06T09:12:09.008Z,3.13
2022-10-06T09:14:41.573Z,2.30
2022-10-06T09:17:14.420Z,2.63
2022-10-06T09:19:47.735Z,5.27
2022-10-06T09:22:21.844Z,1.67
2022-10-06T09:24:55.481Z,3.00
2022-10-06T09:27:25.737Z,3.00
2022-10-06T09:29:54.882Z,5.73
2022-10-06T09:32:28.136Z,3.53
2022-10-06T09:35:00.001Z,3.67
2022-10-06T09:37:29.204Z,1.97
2022-10-06T09:39:58.188Z,3.20
2022-10-06T09:42:29.889Z,3.10
2022-10-06T09:45:01.318Z,3.73
2022-10-06T09:47:45.342Z,4.33
2022-10-06T09:50:22.231Z,2.67
2022-10-06T09:53:16.446Z,3.17
2022-10-06T09:55:55.529Z,4.40
2022-10-06T09:58:31.830Z,1.90
2022-10-06T10:01:02.458Z,4.60
2022-10-06T10:04:08.715Z,2.27
2022-10-06T10:06:36.604Z,7.57
2022-10-06T10:09:26.542Z,2.77
2022-10-06T10:12:31.343Z,2.73
2022-10-06T10:15:05.864Z,3.87
2022-10-06T10:17:44.208Z,4.50
2022-10-06T10:20:35.550Z,3.90
2022-10-06T10:23:20.277Z,2.43
2022-10-06T10:26:27.336Z,4.43
2022-10-06T10:29:08.391Z,3.50
2022-10-06T10:31:51.331Z,3.73
2022-10-06T10:34:34.922Z,5.40
2022-10-06T10:37:10.285Z,4.93
2022-10-06T10:39:43.564Z,5.23
2022-10-06T10:42:23.389Z,3.27
2022-10-06T10:44:58.777Z,2.53
2022-10-06T10:47:31.621Z,1.70
2022-10-06T10:50:08.725Z,4.27
2022-10-06T10:52:42.870Z,1.47
2022-10-06T10:55:23.473Z,21.63
2022-10-06T10:57:55.896Z,11.53
2022-10-06T11:00:28.404Z,1.73
2022-10-06T11:02:59.608Z,1.20
2022-10-06T11:05:41.191Z,2.03
2022-10-06T11:08:19.323Z,1.00
2022-10-06T11:10:52.187Z,2.83
2022-10-06T11:13:29.216Z,1.40
2022-10-06T11:16:17.311Z,1.07
2022-10-06T11:18:58.673Z,2.03
2022-10-06T11:21:33.119Z,1.47
2022-10-06T11:24:15.747Z,0.90
2022-10-06T11:27:17.358Z,0.90
2022-10-06T11:29:58.876Z,0.90
2022-10-06T11:32:33.887Z,1.27
2022-10-06T11:35:03.045Z,3.20
2022-10-06T11:37:41.586Z,0.60
2022-10-06T11:40:33.095Z,3.13
2022-10-06T11:43:09.255Z,1.80
2022-10-06T11:45:45.412Z,0.60
2022-10-06T11:48:25.477Z,2.20
2022-10-06T11:50:56.702Z,2.23
2022-10-06T11:53:38.473Z,2.57
2022-10-06T11:56:38.119Z,2.13
2022-10-06T11:59:31.652Z,5.57
2022-10-06T12:02:03.488Z,3.57
2022-10-06T12:04:32.119Z,1.77
2022-10-06T12:07:02.538Z,1.80
2022-10-06T12:09:52.639Z,0.97
2022-10-06T12:13:05.267Z,27.07
2022-10-06T12:18:51.425Z,0.90
2022-10-06T12:21:32.305Z,2.07
2022-10-06T12:24:06.101Z,0.60
2022-10-06T12:26:42.961Z,0.90
2022-10-06T12:29:40.425Z,1.23
2022-10-06T12:32:21.133Z,1.13
2022-10-06T12:34:59.381Z,3.13
2022-10-06T12:37:50.165Z,2.80
2022-10-06T12:40:48.473Z,1.60
2022-10-06T12:43:58.723Z,0.90
2022-10-06T12:46:43.056Z,0.73
2022-10-06T12:49:32.247Z,2.73
2022-10-06T12:52:09.552Z,1.50
2022-10-06T12:54:47.340Z,2.53
2022-10-06T12:57:20.497Z,1.60
2022-10-06T12:59:49.621Z,5.80
2022-10-06T13:02:22.575Z,3.13
2022-10-06T13:04:54.726Z,2.47
2022-10-06T13:07:25.656Z,1.87
2022-10-06T13:09:56.130Z,3.53
2022-10-06T13:12:27.758Z,1.50
2022-10-06T13:15:15.551Z,2.93
2022-10-06T13:17:51.085Z,1.87
2022-10-06T13:20:24.741Z,0.83
2022-10-06T13:23:01.941Z,8.37
2022-10-06T13:25:37.116Z,14.57
2022-10-06T13:28:06.127Z,1.43
2022-10-06T13:30:38.518Z,1.80
2022-10-06T13:33:10.811Z,0.83
2022-10-06T13:35:40.152Z,2.07
2022-10-06T13:38:08.733Z,5.33
2022-10-06T13:40:44.151Z,0.97
2022-10-06T13:43:20.584Z,2.93
2022-10-06T13:45:50.023Z,6.00
2022-10-06T13:48:24.185Z,1.20
2022-10-06T13:50:53.567Z,1.33
2022-10-06T13:53:28.121Z,1.53
2022-10-06T13:55:56.949Z,1.00
2022-10-06T13:58:28.574Z,0.73
2022-10-06T14:01:01.023Z,5.30
2022-10-06T14:06:09.262Z,1.77
2022-10-06T14:08:38.664Z,1.63
2022-10-06T14:11:09.930Z,3.23
2022-10-06T14:13:45.551Z,0.60
2022-10-06T14:16:22.038Z,2.53
2022-10-06T14:18:59.337Z,0.80
2022-10-06T14:21:37.017Z,1.90
2022-10-06T14:24:09.895Z,1.20
2022-10-06T14:26:38.745Z,1.73
2022-10-06T14:29:07.310Z,2.30
2022-10-06T14:31:35.813Z,2.27
2022-10-06T14:34:06.175Z,2.37
2022-10-06T14:36:40.346Z,2.17
2022-10-06T14:39:10.427Z,1.70
2022-10-06T14:41:38.983Z,1.43
2022-10-06T14:44:09.855Z,1.00
2022-10-06T14:46:38.913Z,0.80
2022-10-06T14:49:10.247Z,1.63
2022-10-06T14:51:40.174Z,2.17
2022-10-06T14:54:12.038Z,1.40
2022-10-06T14:56:42.680Z,1.13
2022-10-06T14:59:17.236Z,5.10
2022-10-06T15:01:46.398Z,1.17
2022-10-06T15:04:19.779Z,0.93
2022-10-06T15:07:06.461Z,1.20
2022-10-06T15:09:35.909Z,1.40
2022-10-06T15:12:04.842Z,2.40
2022-10-06T15:14:35.230Z,1.47
2022-10-06T15:17:04.209Z,1.47
2022-10-06T15:19:35.155Z,1.33
2022-10-06T15:22:04.971Z,2.90
2022-10-06T15:24:33.417Z,1.03
2022-10-06T15:27:23.916Z,3.30
2022-10-06T15:29:53.268Z,1.80
2022-10-06T15:32:22.839Z,2.37
2022-10-06T15:34:55.011Z,2.83
2022-10-06T15:37:23.704Z,1.00
2022-10-06T15:39:52.804Z,3.07
2022-10-06T15:42:24.332Z,1.77
2022-10-06T15:44:52.860Z,1.33
2022-10-06T15:47:24.218Z,3.13
2022-10-06T15:49:53.975Z,1.50
2022-10-06T15:52:23.298Z,2.07
2022-10-06T15:54:52.228Z,2.93
2022-10-06T15:57:21.523Z,2.17
2022-10-06T15:59:50.251Z,1.50
2022-10-06T16:02:20.379Z,3.90
2022-10-06T16:05:16.775Z,4.20
2022-10-06T16:07:46.776Z,6.67
2022-10-06T16:10:15.477Z,14.80
2022-10-06T16:12:44.263Z,4.73
2022-10-06T16:15:13.090Z,9.87
2022-10-06T16:17:42.653Z,10.20
2022-10-06T16:20:11.823Z,2.93
2022-10-06T16:22:40.946Z,4.20
2022-10-06T16:25:11.672Z,6.43
2022-10-06T16:27:40.323Z,5.47
2022-10-06T16:30:10.341Z,7.23
2022-10-06T16:32:38.847Z,9.97
2022-10-06T16:35:08.515Z,9.80
2022-10-06T16:37:37.444Z,2.13
2022-10-06T16:40:06.624Z,5.47
2022-10-06T16:42:37.219Z,4.93
2022-10-06T16:45:06.996Z,2.83
2022-10-06T16:47:35.428Z,3.87
2022-10-06T16:50:03.926Z,9.70
2022-10-06T16:52:32.663Z,5.43
2022-10-06T16:55:01.964Z,6.50
2022-10-06T16:57:30.694Z,5.13
2022-10-06T17:00:00.653Z,14.77
2022-10-06T17:02:29.235Z,17.87
2022-10-06T17:04:57.626Z,4.97
2022-10-06T17:07:26.011Z,10.03
2022-10-06T17:10:15.634Z,14.33
2022-10-06T17:12:43.260Z,8.23
2022-10-06T17:15:13.299Z,4.20
2022-10-06T17:17:42.038Z,8.37
2022-10-06T17:20:11.833Z,22.43
2022-10-06T17:22:40.561Z,20.60
2022-10-06T17:25:10.097Z,12.60
2022-10-06T17:27:42.038Z,9.53
2022-10-06T17:30:15.529Z,4.63
2022-10-06T17:32:45.290Z,4.60
2022-10-06T17:35:13.720Z,2.13
2022-10-06T17:37:42.616Z,3.77
2022-10-06T17:40:11.814Z,4.30
2022-10-06T17:42:41.650Z,2.03
2022-10-06T17:45:13.712Z,3.83
2022-10-06T17:47:44.279Z,4.77
2022-10-06T17:50:12.652Z,4.67
2022-10-06T17:52:41.623Z,2.77
2022-10-06T17:55:10.900Z,4.13
2022-10-06T17:57:39.473Z,3.57
2022-10-06T18:00:10.219Z,4.63
2022-10-06T18:02:40.785Z,3.20
2022-10-06T18:05:09.738Z,2.77
2022-10-06T18:07:38.574Z,3.53
2022-10-06T18:10:25.023Z,5.77
2022-10-06T18:12:53.557Z,7.60
2022-10-06T18:15:22.184Z,3.20
2022-10-06T18:17:52.474Z,3.87
2022-10-06T18:20:21.782Z,7.40
2022-10-06T18:22:50.383Z,3.00
2022-10-06T18:25:22.060Z,2.13
2022-10-06T18:27:54.765Z,4.70
2022-10-06T18:30:28.352Z,5.20
2022-10-06T18:35:57.654Z,3.67
2022-10-06T18:38:45.121Z,3.90
2022-10-06T18:41:15.365Z,7.00
2022-10-06T18:43:44.117Z,4.83
2022-10-06T18:46:32.683Z,4.40
2022-10-06T18:49:06.238Z,4.83
2022-10-06T18:51:36.825Z,5.50
2022-10-06T18:54:08.342Z,7.67
2022-10-06T18:56:38.337Z,7.43
2022-10-06T18:59:10.727Z,7.80
2022-10-06T19:01:42.260Z,6.73
2022-10-06T19:04:16.141Z,5.77
2022-10-06T19:06:49.995Z,27.77
2022-10-06T19:09:20.620Z,28.70
2022-10-06T19:11:52.418Z,20.60
2022-10-06T19:14:22.744Z,18.73
2022-10-06T19:16:56.508Z,15.00
2022-10-06T19:19:28.276Z,59.20
2022-10-06T19:22:00.054Z,714.73
2022-10-06T19:24:30.501Z,688.07
2022-10-06T19:26:59.726Z,1028.80
2022-10-06T19:29:28.443Z,1022.23
2022-10-06T19:31:59.736Z,691.83
2022-10-06T19:34:29.744Z,360.37
2022-10-06T19:36:58.723Z,51.83
2022-10-06T19:39:30.799Z,13.43
2022-10-06T19:42:17.586Z,9.50
2022-10-06T19:44:46.233Z,10.40
2022-10-06T19:47:16.363Z,12.40
2022-10-06T19:49:46.281Z,8.77
2022-10-06T19:52:15.100Z,7.07
2022-10-06T19:54:43.734Z,13.53
2022-10-06T19:57:12.753Z,66.27
2022-10-06T19:59:41.516Z,40.10
2022-10-06T20:02:10.536Z,12.97
2022-10-06T20:04:39.964Z,19.63
2022-10-06T20:07:10.510Z,17.17
2022-10-06T20:09:38.975Z,26.83
2022-10-06T20:12:07.526Z,14.43
2022-10-06T20:14:36.501Z,44.43
2022-10-06T20:17:05.000Z,11.93
2022-10-06T20:19:33.406Z,7.70
2022-10-06T20:22:01.940Z,10.70
2022-10-06T20:24:32.132Z,6.73
2022-10-06T20:27:00.739Z,8.87
2022-10-06T20:29:29.132Z,8.73
2022-10-06T20:31:59.410Z,11.73
2022-10-06T20:34:32.311Z,12.00
2022-10-06T20:37:02.693Z,9.60
2022-10-06T20:39:52.796Z,9.87
2022-10-06T20:42:22.473Z,10.67
2022-10-06T20:44:51.409Z,11.13
2022-10-06T20:47:21.526Z,13.53
2022-10-06T20:49:54.610Z,6.97
2022-10-06T20:52:23.969Z,9.30
2022-10-06T20:54:53.883Z,9.97
2022-10-06T20:57:22.216Z,6.90
2022-10-06T20:59:50.893Z,6.53
2022-10-06T21:02:19.342Z,7.43
2022-10-06T21:04:47.817Z,8.87
2022-10-06T21:07:16.311Z,8.00
2022-10-06T21:09:48.635Z,6.00
2022-10-06T21:12:22.030Z,5.47
2022-10-06T21:14:50.465Z,7.17
2022-10-06T21:17:19.172Z,8.73
2022-10-06T21:19:47.646Z,6.93
2022-10-06T21:22:16.136Z,8.30
2022-10-06T21:24:44.608Z,8.83
2022-10-06T21:27:13.083Z,8.80
2022-10-06T21:29:42.938Z,11.77
2022-10-06T21:32:11.746Z,7.23
2022-10-06T21:34:40.400Z,7.57
2022-10-06T21:37:08.888Z,7.77
2022-10-06T21:39:37.378Z,7.23
2022-10-06T21:42:05.980Z,6.93
2022-10-06T21:44:34.544Z,6.70
2022-10-06T21:47:04.496Z,12.63
2022-10-06T21:49:32.973Z,9.07
2022-10-06T21:52:05.097Z,7.23
2022-10-06T21:54:33.618Z,10.73
2022-10-06T21:57:02.179Z,9.93
2022-10-06T21:59:30.614Z,8.33
2022-10-06T22:01:59.922Z,9.63
2022-10-06T22:04:29.950Z,10.03
2022-10-06T22:06:58.398Z,10.20
2022-10-06T22:09:26.891Z,12.20
2022-10-06T22:11:55.300Z,8.97
2022-10-06T22:14:25.075Z,8.47
2022-10-06T22:16:53.494Z,8.20
2022-10-06T22:19:22.071Z,11.17
2022-10-06T22:21:51.970Z,8.83
2022-10-06T22:24:22.561Z,10.57
2022-10-06T22:26:51.684Z,11.13
2022-10-06T22:29:21.940Z,11.00
2022-10-06T22:31:50.563Z,10.57
2022-10-06T22:34:21.041Z,14.07
2022-10-06T22:36:49.620Z,14.97
2022-10-06T22:39:19.986Z,12.30
2022-10-06T22:41:48.458Z,17.37
2022-10-06T22:44:16.947Z,17.60
2022-10-06T22:46:45.540Z,14.73
2022-10-06T22:49:14.074Z,18.53
2022-10-06T22:51:42.502Z,16.37
2022-10-06T22:54:17.382Z,16.23
2022-10-06T22:56:47.540Z,17.00
2022-10-06T22:59:16.059Z,13.83
2022-10-06T23:01:44.471Z,12.27
2022-10-06T23:04:12.925Z,13.73
2022-10-06T23:06:41.423Z,21.83
2022-10-06T23:09:09.928Z,17.10
2022-10-06T23:11:38.632Z,14.37
2022-10-06T23:14:11.591Z,17.80
2022-10-06T23:16:40.575Z,16.73
2022-10-06T23:19:10.252Z,15.33
2022-10-06T23:21:40.462Z,12.37
2022-10-06T23:24:09.223Z,13.93
2022-10-06T23:26:37.996Z,18.37
2022-10-06T23:29:07.714Z,16.43
2022-10-06T23:31:37.618Z,12.00
2022-10-06T23:34:06.119Z,13.47
2022-10-06T23:36:34.622Z,12.90
2022-10-06T23:39:03.099Z,15.00
2022-10-06T23:41:31.651Z,16.50
2022-10-06T23:44:00.187Z,17.77
2022-10-06T23:46:28.669Z,10.63
2022-10-06T23:48:58.615Z,17.57
2022-10-06T23:51:27.236Z,18.47
2022-10-06T23:53:55.639Z,17.40
2022-10-06T23:56:24.145Z,17.87
2022-10-06T23:58:52.695Z,16.50
